sensor_id;sensor_type;location;lat;lon;timestamp;temperature;humidity
37340;DHT22;23223;51.006;7.610;2022-09-03T00:00:16;14.60;99.90
37340;DHT22;23223;51.006;7.610;2022-09-03T00:02:44;14.60;99.90
37340;DHT22;23223;51.006;7.610;2022-09-03T00:08:24;14.60;99.90
37340;DHT22;23223;51.006;7.610;2022-09-03T00:11:04;14.70;99.90
37340;DHT22;23223;51.006;7.610;2022-09-03T00:13:39;14.60;99.90
37340;DHT22;23223;51.006;7.610;2022-09-03T00:16:09;14.70;99.90
37340;DHT22;23223;51.006;7.610;2022-09-03T00:18:44;14.60;99.90
37340;DHT22;23223;51.006;7.610;2022-09-03T00:21:15;14.60;99.90
37340;DHT22;23223;51.006;7.610;2022-09-03T00:23:43;14.60;99.90
37340;DHT22;23223;51.006;7.610;2022-09-03T00:29:06;14.30;99.90
37340;DHT22;23223;51.006;7.610;2022-09-03T00:31:35;14.30;99.90
37340;DHT22;23223;51.006;7.610;2022-09-03T00:34:09;14.40;99.90
37340;DHT22;23223;51.006;7.610;2022-09-03T00:36:42;14.30;99.90
37340;DHT22;23223;51.006;7.610;2022-09-03T00:39:16;14.10;99.90
37340;DHT22;23223;51.006;7.610;2022-09-03T00:41:54;14.00;99.90
37340;DHT22;23223;51.006;7.610;2022-09-03T00:47:29;14.20;99.90
37340;DHT22;23223;51.006;7.610;2022-09-03T00:50:00;14.30;99.90
37340;DHT22;23223;51.006;7.610;2022-09-03T00:52:58;14.10;99.90
37340;DHT22;23223;51.006;7.610;2022-09-03T01:00:57;14.00;99.90
37340;DHT22;23223;51.006;7.610;2022-09-03T01:03:31;13.90;99.90
37340;DHT22;23223;51.006;7.610;2022-09-03T01:06:17;14.00;99.90
37340;DHT22;23223;51.006;7.610;2022-09-03T01:11:47;14.00;99.90
37340;DHT22;23223;51.006;7.610;2022-09-03T01:14:33;13.90;99.90
37340;DHT22;23223;51.006;7.610;2022-09-03T01:23:10;13.80;99.90
37340;DHT22;23223;51.006;7.610;2022-09-03T01:33:44;14.10;99.90
37340;DHT22;23223;51.006;7.610;2022-09-03T01:36:34;14.20;99.90
37340;DHT22;23223;51.006;7.610;2022-09-03T01:39:04;14.20;99.90
37340;DHT22;23223;51.006;7.610;2022-09-03T01:42:00;14.30;99.90
37340;DHT22;23223;51.006;7.610;2022-09-03T01:50:03;14.30;99.90
37340;DHT22;23223;51.006;7.610;2022-09-03T01:55:32;14.20;99.90
37340;DHT22;23223;51.006;7.610;2022-09-03T01:58:12;14.00;99.90
37340;DHT22;23223;51.006;7.610;2022-09-03T02:00:40;13.80;99.90
37340;DHT22;23223;51.006;7.610;2022-09-03T02:03:08;13.70;99.90
37340;DHT22;23223;51.006;7.610;2022-09-03T02:05:34;13.80;99.90
37340;DHT22;23223;51.006;7.610;2022-09-03T02:08:07;13.70;99.90
37340;DHT22;23223;51.006;7.610;2022-09-03T02:10:40;13.60;99.90
37340;DHT22;23223;51.006;7.610;2022-09-03T02:13:29;13.40;99.90
37340;DHT22;23223;51.006;7.610;2022-09-03T02:15:59;13.30;99.90
37340;DHT22;23223;51.006;7.610;2022-09-03T02:18:33;13.30;99.90
37340;DHT22;23223;51.006;7.610;2022-09-03T02:21:01;13.60;99.90
37340;DHT22;23223;51.006;7.610;2022-09-03T02:23:27;13.60;99.90
37340;DHT22;23223;51.006;7.610;2022-09-03T02:25:57;13.50;99.90
37340;DHT22;23223;51.006;7.610;2022-09-03T02:28:25;13.40;99.90
37340;DHT22;23223;51.006;7.610;2022-09-03T02:30:52;13.40;99.90
37340;DHT22;23223;51.006;7.610;2022-09-03T02:33:17;13.70;99.90
37340;DHT22;23223;51.006;7.610;2022-09-03T02:35:44;13.80;99.90
37340;DHT22;23223;51.006;7.610;2022-09-03T02:38:16;13.90;99.90
37340;DHT22;23223;51.006;7.610;2022-09-03T02:40:43;13.90;99.90
37340;DHT22;23223;51.006;7.610;2022-09-03T02:43:17;14.00;99.90
37340;DHT22;23223;51.006;7.610;2022-09-03T02:45:47;14.30;99.90
37340;DHT22;23223;51.006;7.610;2022-09-03T02:48:15;14.50;99.90
37340;DHT22;23223;51.006;7.610;2022-09-03T02:50:42;14.50;99.90
37340;DHT22;23223;51.006;7.610;2022-09-03T02:53:08;14.50;99.90
37340;DHT22;23223;51.006;7.610;2022-09-03T02:55:35;14.30;99.90
37340;DHT22;23223;51.006;7.610;2022-09-03T02:58:00;14.30;99.90
37340;DHT22;23223;51.006;7.610;2022-09-03T03:00:26;14.40;99.90
37340;DHT22;23223;51.006;7.610;2022-09-03T03:02:54;14.50;99.90
37340;DHT22;23223;51.006;7.610;2022-09-03T03:05:46;14.60;99.90
37340;DHT22;23223;51.006;7.610;2022-09-03T03:08:13;14.40;99.90
37340;DHT22;23223;51.006;7.610;2022-09-03T03:10:40;14.30;99.90
37340;DHT22;23223;51.006;7.610;2022-09-03T03:13:06;14.30;99.90
37340;DHT22;23223;51.006;7.610;2022-09-03T03:15:32;14.20;99.90
37340;DHT22;23223;51.006;7.610;2022-09-03T03:17:57;14.00;99.90
37340;DHT22;23223;51.006;7.610;2022-09-03T03:20:23;13.90;99.90
37340;DHT22;23223;51.006;7.610;2022-09-03T03:22:49;13.90;99.90
37340;DHT22;23223;51.006;7.610;2022-09-03T03:25:14;14.00;99.90
37340;DHT22;23223;51.006;7.610;2022-09-03T03:27:40;13.90;99.90
37340;DHT22;23223;51.006;7.610;2022-09-03T03:30:07;13.80;99.90
37340;DHT22;23223;51.006;7.610;2022-09-03T03:32:35;13.80;99.90
37340;DHT22;23223;51.006;7.610;2022-09-03T03:35:00;13.90;99.90
37340;DHT22;23223;51.006;7.610;2022-09-03T03:37:26;14.10;99.90
37340;DHT22;23223;51.006;7.610;2022-09-03T03:39:51;14.40;99.90
37340;DHT22;23223;51.006;7.610;2022-09-03T03:42:17;14.40;99.90
37340;DHT22;23223;51.006;7.610;2022-09-03T03:44:42;14.20;99.90
37340;DHT22;23223;51.006;7.610;2022-09-03T03:47:08;14.00;99.90
37340;DHT22;23223;51.006;7.610;2022-09-03T03:49:34;13.70;99.90
37340;DHT22;23223;51.006;7.610;2022-09-03T03:51:59;13.50;99.90
37340;DHT22;23223;51.006;7.610;2022-09-03T03:54:27;13.50;99.90
37340;DHT22;23223;51.006;7.610;2022-09-03T03:56:52;13.50;99.90
37340;DHT22;23223;51.006;7.610;2022-09-03T03:59:18;13.50;99.90
37340;DHT22;23223;51.006;7.610;2022-09-03T04:01:44;13.50;99.90
37340;DHT22;23223;51.006;7.610;2022-09-03T04:04:09;13.50;99.90
37340;DHT22;23223;51.006;7.610;2022-09-03T04:06:35;13.40;99.90
37340;DHT22;23223;51.006;7.610;2022-09-03T04:09:00;13.40;99.90
37340;DHT22;23223;51.006;7.610;2022-09-03T04:11:26;13.40;99.90
37340;DHT22;23223;51.006;7.610;2022-09-03T04:13:51;13.30;99.90
37340;DHT22;23223;51.006;7.610;2022-09-03T04:16:22;13.30;99.90
37340;DHT22;23223;51.006;7.610;2022-09-03T04:18:49;13.50;99.90
37340;DHT22;23223;51.006;7.610;2022-09-03T04:21:21;13.50;99.90
37340;DHT22;23223;51.006;7.610;2022-09-03T04:23:47;13.30;99.90
37340;DHT22;23223;51.006;7.610;2022-09-03T04:26:17;13.30;99.90
37340;DHT22;23223;51.006;7.610;2022-09-03T04:28:43;13.40;99.90
37340;DHT22;23223;51.006;7.610;2022-09-03T04:31:12;13.50;99.90
37340;DHT22;23223;51.006;7.610;2022-09-03T04:33:38;13.40;99.90
37340;DHT22;23223;51.006;7.610;2022-09-03T04:36:12;13.70;99.90
37340;DHT22;23223;51.006;7.610;2022-09-03T04:38:40;13.90;99.90
37340;DHT22;23223;51.006;7.610;2022-09-03T04:41:08;13.90;99.90
37340;DHT22;23223;51.006;7.610;2022-09-03T04:43:35;13.70;99.90
37340;DHT22;23223;51.006;7.610;2022-09-03T04:46:03;13.70;99.90
37340;DHT22;23223;51.006;7.610;2022-09-03T04:48:30;13.90;99.90
37340;DHT22;23223;51.006;7.610;2022-09-03T04:51:18;14.00;99.90
37340;DHT22;23223;51.006;7.610;2022-09-03T04:53:45;13.80;99.90
37340;DHT22;23223;51.006;7.610;2022-09-03T04:56:22;13.50;99.90
37340;DHT22;23223;51.006;7.610;2022-09-03T04:58:53;13.50;99.90
37340;DHT22;23223;51.006;7.610;2022-09-03T05:01:22;13.70;99.90
37340;DHT22;23223;51.006;7.610;2022-09-03T05:03:48;13.90;99.90
37340;DHT22;23223;51.006;7.610;2022-09-03T05:06:15;14.00;99.90
37340;DHT22;23223;51.006;7.610;2022-09-03T05:08:41;13.90;99.90
37340;DHT22;23223;51.006;7.610;2022-09-03T05:11:08;13.70;99.90
37340;DHT22;23223;51.006;7.610;2022-09-03T05:13:34;13.50;99.90
37340;DHT22;23223;51.006;7.610;2022-09-03T05:16:03;13.60;99.90
37340;DHT22;23223;51.006;7.610;2022-09-03T05:18:31;13.60;99.90
37340;DHT22;23223;51.006;7.610;2022-09-03T05:21:08;13.60;99.90
37340;DHT22;23223;51.006;7.610;2022-09-03T05:23:36;13.60;99.90
37340;DHT22;23223;51.006;7.610;2022-09-03T05:26:04;13.60;99.90
37340;DHT22;23223;51.006;7.610;2022-09-03T05:28:33;13.90;99.90
37340;DHT22;23223;51.006;7.610;2022-09-03T05:31:02;14.10;99.90
37340;DHT22;23223;51.006;7.610;2022-09-03T05:33:28;14.20;99.90
37340;DHT22;23223;51.006;7.610;2022-09-03T05:36:03;14.30;99.90
37340;DHT22;23223;51.006;7.610;2022-09-03T05:38:29;14.50;99.90
37340;DHT22;23223;51.006;7.610;2022-09-03T05:40:58;14.60;99.90
37340;DHT22;23223;51.006;7.610;2022-09-03T05:43:24;14.90;99.90
37340;DHT22;23223;51.006;7.610;2022-09-03T05:45:50;14.90;99.90
37340;DHT22;23223;51.006;7.610;2022-09-03T05:48:16;14.90;99.90
37340;DHT22;23223;51.006;7.610;2022-09-03T05:50:41;15.20;99.90
37340;DHT22;23223;51.006;7.610;2022-09-03T05:53:07;15.80;99.90
37340;DHT22;23223;51.006;7.610;2022-09-03T05:55:32;15.90;99.90
37340;DHT22;23223;51.006;7.610;2022-09-03T05:57:58;16.10;99.90
37340;DHT22;23223;51.006;7.610;2022-09-03T06:00:24;16.40;99.90
37340;DHT22;23223;51.006;7.610;2022-09-03T06:02:52;16.50;99.90
37340;DHT22;23223;51.006;7.610;2022-09-03T06:05:18;16.60;99.90
37340;DHT22;23223;51.006;7.610;2022-09-03T06:07:45;16.70;99.90
37340;DHT22;23223;51.006;7.610;2022-09-03T06:10:14;16.80;99.90
37340;DHT22;23223;51.006;7.610;2022-09-03T06:12:42;17.00;99.90
37340;DHT22;23223;51.006;7.610;2022-09-03T06:15:14;17.10;99.90
37340;DHT22;23223;51.006;7.610;2022-09-03T06:17:40;17.40;99.90
37340;DHT22;23223;51.006;7.610;2022-09-03T06:20:06;17.90;99.90
37340;DHT22;23223;51.006;7.610;2022-09-03T06:22:32;18.50;99.90
37340;DHT22;23223;51.006;7.610;2022-09-03T06:24:58;18.90;99.90
37340;DHT22;23223;51.006;7.610;2022-09-03T06:27:23;19.40;99.90
37340;DHT22;23223;51.006;7.610;2022-09-03T06:29:49;19.70;99.90
37340;DHT22;23223;51.006;7.610;2022-09-03T06:32:14;19.80;99.90
37340;DHT22;23223;51.006;7.610;2022-09-03T06:34:40;19.70;99.90
37340;DHT22;23223;51.006;7.610;2022-09-03T06:37:06;19.80;99.90
37340;DHT22;23223;51.006;7.610;2022-09-03T06:39:31;19.80;99.90
37340;DHT22;23223;51.006;7.610;2022-09-03T06:41:57;19.70;99.90
37340;DHT22;23223;51.006;7.610;2022-09-03T06:44:22;19.60;99.90
37340;DHT22;23223;51.006;7.610;2022-09-03T06:46:48;19.40;99.90
37340;DHT22;23223;51.006;7.610;2022-09-03T06:49:14;19.50;99.90
37340;DHT22;23223;51.006;7.610;2022-09-03T06:51:40;19.30;99.90
37340;DHT22;23223;51.006;7.610;2022-09-03T06:54:09;19.20;99.90
37340;DHT22;23223;51.006;7.610;2022-09-03T06:56:36;19.20;99.90
37340;DHT22;23223;51.006;7.610;2022-09-03T06:59:10;19.20;99.90
37340;DHT22;23223;51.006;7.610;2022-09-03T07:01:36;19.30;99.90
37340;DHT22;23223;51.006;7.610;2022-09-03T07:04:05;19.50;99.90
37340;DHT22;23223;51.006;7.610;2022-09-03T07:06:36;19.50;99.90
37340;DHT22;23223;51.006;7.610;2022-09-03T07:09:04;19.30;99.90
37340;DHT22;23223;51.006;7.610;2022-09-03T07:11:30;19.40;99.90
37340;DHT22;23223;51.006;7.610;2022-09-03T07:13:58;19.50;99.90
37340;DHT22;23223;51.006;7.610;2022-09-03T07:16:29;19.40;99.90
37340;DHT22;23223;51.006;7.610;2022-09-03T07:18:55;19.60;99.90
37340;DHT22;23223;51.006;7.610;2022-09-03T07:21:27;19.90;99.90
37340;DHT22;23223;51.006;7.610;2022-09-03T07:23:54;20.20;99.90
37340;DHT22;23223;51.006;7.610;2022-09-03T07:26:25;20.90;99.90
37340;DHT22;23223;51.006;7.610;2022-09-03T07:28:52;21.20;99.90
37340;DHT22;23223;51.006;7.610;2022-09-03T07:31:27;21.90;99.90
37340;DHT22;23223;51.006;7.610;2022-09-03T07:33:56;22.50;99.90
37340;DHT22;23223;51.006;7.610;2022-09-03T07:36:24;23.20;99.90
37340;DHT22;23223;51.006;7.610;2022-09-03T07:38:54;23.10;99.90
37340;DHT22;23223;51.006;7.610;2022-09-03T07:41:20;23.30;99.80
37340;DHT22;23223;51.006;7.610;2022-09-03T07:43:47;23.70;98.10
37340;DHT22;23223;51.006;7.610;2022-09-03T07:46:14;24.00;98.20
37340;DHT22;23223;51.006;7.610;2022-09-03T07:48:45;24.50;96.50
37340;DHT22;23223;51.006;7.610;2022-09-03T07:51:11;24.50;94.50
37340;DHT22;23223;51.006;7.610;2022-09-03T07:53:37;24.90;93.60
37340;DHT22;23223;51.006;7.610;2022-09-03T07:56:03;25.00;92.30
37340;DHT22;23223;51.006;7.610;2022-09-03T07:58:30;25.50;92.80
37340;DHT22;23223;51.006;7.610;2022-09-03T08:00:56;25.50;91.60
37340;DHT22;23223;51.006;7.610;2022-09-03T08:03:22;25.80;91.80
37340;DHT22;23223;51.006;7.610;2022-09-03T08:05:48;25.90;90.10
37340;DHT22;23223;51.006;7.610;2022-09-03T08:08:14;25.70;90.10
37340;DHT22;23223;51.006;7.610;2022-09-03T08:10:40;25.70;90.10
37340;DHT22;23223;51.006;7.610;2022-09-03T08:13:06;25.70;91.40
37340;DHT22;23223;51.006;7.610;2022-09-03T08:15:32;25.40;90.70
37340;DHT22;23223;51.006;7.610;2022-09-03T08:17:59;25.40;90.20
37340;DHT22;23223;51.006;7.610;2022-09-03T08:20:26;25.50;91.40
37340;DHT22;23223;51.006;7.610;2022-09-03T08:22:52;25.80;88.70
37340;DHT22;23223;51.006;7.610;2022-09-03T08:25:18;26.50;87.70
37340;DHT22;23223;51.006;7.610;2022-09-03T08:27:43;26.70;88.20
37340;DHT22;23223;51.006;7.610;2022-09-03T08:30:09;26.20;85.30
37340;DHT22;23223;51.006;7.610;2022-09-03T08:32:37;25.60;88.30
37340;DHT22;23223;51.006;7.610;2022-09-03T08:35:05;25.80;87.90
37340;DHT22;23223;51.006;7.610;2022-09-03T08:37:31;25.80;87.90
37340;DHT22;23223;51.006;7.610;2022-09-03T08:39:57;25.70;87.00
37340;DHT22;23223;51.006;7.610;2022-09-03T08:42:48;25.90;87.20
37340;DHT22;23223;51.006;7.610;2022-09-03T08:45:19;26.40;88.20
37340;DHT22;23223;51.006;7.610;2022-09-03T08:48:13;26.10;86.40
37340;DHT22;23223;51.006;7.610;2022-09-03T08:50:42;26.90;85.90
37340;DHT22;23223;51.006;7.610;2022-09-03T08:55:57;28.40;82.30
37340;DHT22;23223;51.006;7.610;2022-09-03T08:58:26;27.90;78.90
37340;DHT22;23223;51.006;7.610;2022-09-03T09:06:13;27.70;77.10
37340;DHT22;23223;51.006;7.610;2022-09-03T09:15:26;26.60;79.50
37340;DHT22;23223;51.006;7.610;2022-09-03T09:20:39;27.90;77.30
37340;DHT22;23223;51.006;7.610;2022-09-03T09:23:29;28.20;76.40
37340;DHT22;23223;51.006;7.610;2022-09-03T09:25:56;27.90;76.10
37340;DHT22;23223;51.006;7.610;2022-09-03T09:28:34;27.50;76.80
37340;DHT22;23223;51.006;7.610;2022-09-03T09:31:01;26.80;78.30
37340;DHT22;23223;51.006;7.610;2022-09-03T09:33:29;25.60;81.30
37340;DHT22;23223;51.006;7.610;2022-09-03T09:35:58;25.10;84.50
37340;DHT22;23223;51.006;7.610;2022-09-03T09:38:34;24.50;87.30
37340;DHT22;23223;51.006;7.610;2022-09-03T09:41:27;23.80;90.30
37340;DHT22;23223;51.006;7.610;2022-09-03T09:44:00;23.20;92.00
37340;DHT22;23223;51.006;7.610;2022-09-03T09:46:36;22.70;93.10
37340;DHT22;23223;51.006;7.610;2022-09-03T09:49:17;22.50;93.90
37340;DHT22;23223;51.006;7.610;2022-09-03T09:51:47;22.30;95.00
37340;DHT22;23223;51.006;7.610;2022-09-03T09:54:16;22.40;95.60
37340;DHT22;23223;51.006;7.610;2022-09-03T09:56:56;21.90;96.70
37340;DHT22;23223;51.006;7.610;2022-09-03T09:59:23;22.10;97.00
37340;DHT22;23223;51.006;7.610;2022-09-03T10:01:48;22.10;97.10
37340;DHT22;23223;51.006;7.610;2022-09-03T10:04:24;22.20;97.30
37340;DHT22;23223;51.006;7.610;2022-09-03T10:06:59;22.30;97.40
37340;DHT22;23223;51.006;7.610;2022-09-03T10:09:30;22.10;97.10
37340;DHT22;23223;51.006;7.610;2022-09-03T10:12:35;22.20;97.60
37340;DHT22;23223;51.006;7.610;2022-09-03T10:20:14;22.50;98.10
37340;DHT22;23223;51.006;7.610;2022-09-03T10:28:14;22.30;99.10
37340;DHT22;23223;51.006;7.610;2022-09-03T10:30:52;22.30;98.90
37340;DHT22;23223;51.006;7.610;2022-09-03T10:33:37;22.40;98.80
37340;DHT22;23223;51.006;7.610;2022-09-03T10:36:14;22.80;98.00
37340;DHT22;23223;51.006;7.610;2022-09-03T10:38:45;23.20;97.30
37340;DHT22;23223;51.006;7.610;2022-09-03T10:41:29;23.70;96.50
37340;DHT22;23223;51.006;7.610;2022-09-03T10:44:20;24.00;95.80
37340;DHT22;23223;51.006;7.610;2022-09-03T10:50:12;23.90;96.60
37340;DHT22;23223;51.006;7.610;2022-09-03T11:01:18;23.70;96.80
37340;DHT22;23223;51.006;7.610;2022-09-03T11:06:51;24.00;96.30
37340;DHT22;23223;51.006;7.610;2022-09-03T11:09:54;23.80;96.80
37340;DHT22;23223;51.006;7.610;2022-09-03T11:12:35;23.60;96.80
37340;DHT22;23223;51.006;7.610;2022-09-03T11:15:08;23.80;96.80
37340;DHT22;23223;51.006;7.610;2022-09-03T11:20:21;24.00;96.40
37340;DHT22;23223;51.006;7.610;2022-09-03T11:22:49;23.60;97.20
37340;DHT22;23223;51.006;7.610;2022-09-03T11:25:19;23.50;97.50
37340;DHT22;23223;51.006;7.610;2022-09-03T11:33:22;22.80;99.60
37340;DHT22;23223;51.006;7.610;2022-09-03T11:35:57;22.90;99.70
37340;DHT22;23223;51.006;7.610;2022-09-03T11:38:26;23.40;98.90
37340;DHT22;23223;51.006;7.610;2022-09-03T11:40:56;24.20;97.90
37340;DHT22;23223;51.006;7.610;2022-09-03T11:45:48;25.70;95.20
37340;DHT22;23223;51.006;7.610;2022-09-03T11:48:32;25.70;94.20
37340;DHT22;23223;51.006;7.610;2022-09-03T11:50:59;25.80;94.10
37340;DHT22;23223;51.006;7.610;2022-09-03T11:53:32;26.10;93.40
37340;DHT22;23223;51.006;7.610;2022-09-03T11:58:35;26.20;93.00
37340;DHT22;23223;51.006;7.610;2022-09-03T12:01:05;26.20;93.40
37340;DHT22;23223;51.006;7.610;2022-09-03T12:03:44;26.40;93.40
37340;DHT22;23223;51.006;7.610;2022-09-03T12:17:06;24.90;98.10
37340;DHT22;23223;51.006;7.610;2022-09-03T12:19:54;24.90;98.80
37340;DHT22;23223;51.006;7.610;2022-09-03T12:22:23;25.00;98.70
37340;DHT22;23223;51.006;7.610;2022-09-03T12:24:49;25.70;98.00
37340;DHT22;23223;51.006;7.610;2022-09-03T12:27:25;26.90;96.30
37340;DHT22;23223;51.006;7.610;2022-09-03T12:29:57;28.30;94.10
37340;DHT22;23223;51.006;7.610;2022-09-03T12:32:32;28.80;92.70
37340;DHT22;23223;51.006;7.610;2022-09-03T12:35:16;28.50;92.40
37340;DHT22;23223;51.006;7.610;2022-09-03T12:37:44;29.00;91.80
37340;DHT22;23223;51.006;7.610;2022-09-03T12:40:22;29.50;90.70
37340;DHT22;23223;51.006;7.610;2022-09-03T12:42:49;29.90;90.10
37340;DHT22;23223;51.006;7.610;2022-09-03T12:45:18;30.10;88.50
37340;DHT22;23223;51.006;7.610;2022-09-03T12:47:44;30.40;87.10
37340;DHT22;23223;51.006;7.610;2022-09-03T12:50:16;31.10;85.00
37340;DHT22;23223;51.006;7.610;2022-09-03T12:55:33;31.10;82.40
37340;DHT22;23223;51.006;7.610;2022-09-03T12:58:08;31.20;82.10
37340;DHT22;23223;51.006;7.610;2022-09-03T13:00:49;30.60;82.60
37340;DHT22;23223;51.006;7.610;2022-09-03T13:05:58;29.00;87.30
37340;DHT22;23223;51.006;7.610;2022-09-03T13:11:16;27.90;91.30
37340;DHT22;23223;51.006;7.610;2022-09-03T13:13:54;27.90;91.90
37340;DHT22;23223;51.006;7.610;2022-09-03T13:30:08;26.20;96.90
37340;DHT22;23223;51.006;7.610;2022-09-03T13:35:34;27.70;95.40
37340;DHT22;23223;51.006;7.610;2022-09-03T13:40:35;29.10;92.80
37340;DHT22;23223;51.006;7.610;2022-09-03T13:46:06;29.00;92.00
37340;DHT22;23223;51.006;7.610;2022-09-03T13:48:39;28.60;92.70
37340;DHT22;23223;51.006;7.610;2022-09-03T13:51:37;28.10;93.40
37340;DHT22;23223;51.006;7.610;2022-09-03T13:54:12;27.40;94.70
37340;DHT22;23223;51.006;7.610;2022-09-03T13:56:55;26.90;95.60
37340;DHT22;23223;51.006;7.610;2022-09-03T14:02:19;26.20;97.60
37340;DHT22;23223;51.006;7.610;2022-09-03T14:05:08;25.90;98.50
37340;DHT22;23223;51.006;7.610;2022-09-03T14:10:34;25.50;99.90
37340;DHT22;23223;51.006;7.610;2022-09-03T14:13:16;25.80;99.50
37340;DHT22;23223;51.006;7.610;2022-09-03T14:16:23;26.40;99.00
37340;DHT22;23223;51.006;7.610;2022-09-03T14:18:52;26.40;99.00
37340;DHT22;23223;51.006;7.610;2022-09-03T14:21:20;26.40;98.70
37340;DHT22;23223;51.006;7.610;2022-09-03T14:24:06;26.80;98.10
37340;DHT22;23223;51.006;7.610;2022-09-03T14:26:36;26.60;98.10
37340;DHT22;23223;51.006;7.610;2022-09-03T14:34:46;26.10;99.60
37340;DHT22;23223;51.006;7.610;2022-09-03T14:40:18;25.70;99.90
37340;DHT22;23223;51.006;7.610;2022-09-03T14:45:26;26.20;99.90
37340;DHT22;23223;51.006;7.610;2022-09-03T14:54:14;26.50;98.50
37340;DHT22;23223;51.006;7.610;2022-09-03T15:05:45;25.80;99.90
37340;DHT22;23223;51.006;7.610;2022-09-03T15:11:02;26.00;99.90
37340;DHT22;23223;51.006;7.610;2022-09-03T15:13:32;26.00;99.90
37340;DHT22;23223;51.006;7.610;2022-09-03T15:18:50;25.90;99.90
37340;DHT22;23223;51.006;7.610;2022-09-03T15:35:04;24.50;99.90
37340;DHT22;23223;51.006;7.610;2022-09-03T15:37:42;24.30;99.90
37340;DHT22;23223;51.006;7.610;2022-09-03T15:40:33;24.30;99.90
37340;DHT22;23223;51.006;7.610;2022-09-03T15:43:08;24.40;99.90
37340;DHT22;23223;51.006;7.610;2022-09-03T15:45:48;24.70;99.90
37340;DHT22;23223;51.006;7.610;2022-09-03T15:48:33;24.80;99.90
37340;DHT22;23223;51.006;7.610;2022-09-03T15:51:19;24.80;99.90
37340;DHT22;23223;51.006;7.610;2022-09-03T15:53:50;24.80;99.90
37340;DHT22;23223;51.006;7.610;2022-09-03T15:56:22;24.80;99.90
37340;DHT22;23223;51.006;7.610;2022-09-03T16:01:42;25.00;99.90
37340;DHT22;23223;51.006;7.610;2022-09-03T16:07:06;24.90;99.90
37340;DHT22;23223;51.006;7.610;2022-09-03T16:09:55;24.80;99.90
37340;DHT22;23223;51.006;7.610;2022-09-03T16:17:59;24.10;99.90
37340;DHT22;23223;51.006;7.610;2022-09-03T16:23:11;24.00;99.90
37340;DHT22;23223;51.006;7.610;2022-09-03T16:26:02;24.00;99.90
37340;DHT22;23223;51.006;7.610;2022-09-03T16:29:00;24.00;99.90
37340;DHT22;23223;51.006;7.610;2022-09-03T16:36:51;23.70;99.90
37340;DHT22;23223;51.006;7.610;2022-09-03T16:42:26;23.60;99.90
37340;DHT22;23223;51.006;7.610;2022-09-03T16:47:38;23.50;99.90
37340;DHT22;23223;51.006;7.610;2022-09-03T16:55:55;23.70;99.90
37340;DHT22;23223;51.006;7.610;2022-09-03T16:58:30;23.80;99.90
37340;DHT22;23223;51.006;7.610;2022-09-03T17:01:21;23.80;99.90
37340;DHT22;23223;51.006;7.610;2022-09-03T17:09:50;23.80;99.90
37340;DHT22;23223;51.006;7.610;2022-09-03T17:12:42;23.70;99.90
37340;DHT22;23223;51.006;7.610;2022-09-03T17:24:04;23.30;99.90
37340;DHT22;23223;51.006;7.610;2022-09-03T17:29:50;23.30;99.90
37340;DHT22;23223;51.006;7.610;2022-09-03T17:38:12;22.80;99.90
37340;DHT22;23223;51.006;7.610;2022-09-03T17:43:36;22.60;99.90
37340;DHT22;23223;51.006;7.610;2022-09-03T17:48:54;22.20;99.90
37340;DHT22;23223;51.006;7.610;2022-09-03T17:51:38;22.00;99.90
37340;DHT22;23223;51.006;7.610;2022-09-03T17:54:41;21.90;99.90
37340;DHT22;23223;51.006;7.610;2022-09-03T17:57:37;21.90;99.90
37340;DHT22;23223;51.006;7.610;2022-09-03T18:00:27;21.80;99.90
37340;DHT22;23223;51.006;7.610;2022-09-03T18:03:05;21.90;99.90
37340;DHT22;23223;51.006;7.610;2022-09-03T18:09:02;21.90;99.90
37340;DHT22;23223;51.006;7.610;2022-09-03T18:11:39;21.70;99.90
37340;DHT22;23223;51.006;7.610;2022-09-03T18:14:16;21.50;99.90
37340;DHT22;23223;51.006;7.610;2022-09-03T18:19:48;21.20;99.90
37340;DHT22;23223;51.006;7.610;2022-09-03T18:25:32;21.00;99.90
37340;DHT22;23223;51.006;7.610;2022-09-03T18:28:22;20.80;99.90
37340;DHT22;23223;51.006;7.610;2022-09-03T18:31:12;20.70;99.90
37340;DHT22;23223;51.006;7.610;2022-09-03T18:33:59;20.70;99.90
37340;DHT22;23223;51.006;7.610;2022-09-03T18:36:43;20.70;99.90
37340;DHT22;23223;51.006;7.610;2022-09-03T18:39:28;20.70;99.90
37340;DHT22;23223;51.006;7.610;2022-09-03T18:51:29;20.50;99.90
37340;DHT22;23223;51.006;7.610;2022-09-03T18:54:37;20.70;99.90
37340;DHT22;23223;51.006;7.610;2022-09-03T18:57:53;20.60;99.90
37340;DHT22;23223;51.006;7.610;2022-09-03T19:00:54;20.40;99.90
37340;DHT22;23223;51.006;7.610;2022-09-03T19:03:51;20.40;99.90
37340;DHT22;23223;51.006;7.610;2022-09-03T19:09:43;20.70;99.90
37340;DHT22;23223;51.006;7.610;2022-09-03T19:13:16;20.50;99.90
37340;DHT22;23223;51.006;7.610;2022-09-03T19:15:38;20.30;99.90
37340;DHT22;23223;51.006;7.610;2022-09-03T19:21:37;19.70;99.90
37340;DHT22;23223;51.006;7.610;2022-09-03T19:24:27;19.60;99.90
37340;DHT22;23223;51.006;7.610;2022-09-03T19:27:32;19.40;99.90
37340;DHT22;23223;51.006;7.610;2022-09-03T19:30:48;19.30;99.90
37340;DHT22;23223;51.006;7.610;2022-09-03T19:42:59;18.90;99.90
37340;DHT22;23223;51.006;7.610;2022-09-03T19:54:27;18.40;99.90
37340;DHT22;23223;51.006;7.610;2022-09-03T19:57:15;18.30;99.90
37340;DHT22;23223;51.006;7.610;2022-09-03T20:00:02;18.20;99.90
37340;DHT22;23223;51.006;7.610;2022-09-03T20:02:47;18.10;99.90
37340;DHT22;23223;51.006;7.610;2022-09-03T20:05:31;18.00;99.90
37340;DHT22;23223;51.006;7.610;2022-09-03T20:08:16;17.80;99.90
37340;DHT22;23223;51.006;7.610;2022-09-03T20:11:01;17.60;99.90
37340;DHT22;23223;51.006;7.610;2022-09-03T20:13:28;17.40;99.90
37340;DHT22;23223;51.006;7.610;2022-09-03T20:16:19;17.30;99.90
37340;DHT22;23223;51.006;7.610;2022-09-03T20:19:00;17.20;99.90
37340;DHT22;23223;51.006;7.610;2022-09-03T20:21:38;17.00;99.90
37340;DHT22;23223;51.006;7.610;2022-09-03T20:27:16;16.90;99.90
37340;DHT22;23223;51.006;7.610;2022-09-03T20:29:55;16.80;99.90
37340;DHT22;23223;51.006;7.610;2022-09-03T20:32:44;17.00;99.90
37340;DHT22;23223;51.006;7.610;2022-09-03T20:38:24;16.80;99.90
37340;DHT22;23223;51.006;7.610;2022-09-03T20:52:26;16.40;99.90
37340;DHT22;23223;51.006;7.610;2022-09-03T20:55:22;16.30;99.90
37340;DHT22;23223;51.006;7.610;2022-09-03T20:58:05;16.30;99.90
37340;DHT22;23223;51.006;7.610;2022-09-03T21:00:47;16.30;99.90
37340;DHT22;23223;51.006;7.610;2022-09-03T21:11:39;16.60;99.90
37340;DHT22;23223;51.006;7.610;2022-09-03T21:16:55;16.40;99.90
37340;DHT22;23223;51.006;7.610;2022-09-03T21:19:56;16.60;99.90
37340;DHT22;23223;51.006;7.610;2022-09-03T21:22:59;16.50;99.90
37340;DHT22;23223;51.006;7.610;2022-09-03T21:25:37;16.30;99.90
37340;DHT22;23223;51.006;7.610;2022-09-03T21:28:27;16.20;99.90
37340;DHT22;23223;51.006;7.610;2022-09-03T21:30:59;16.00;99.90